»·PEaware :: DCM205 KSAN-KLAS

DCM205 :: KSAN-KLAS

FLIGHT INFORMATION

Flight Status: Arrived
Operator:
DotCom
More flights by this operator :: More flights under this callsign
Pilot: Chris S. (2433)
Aircraft: AIRBUS A319
(A319)
More flights by this aircraft type
Origin: KSAN San Diego Intl-Lindbergh
United States
Destination: KLAS McCarran Intl
United States
More flights between these airports :: More routes between these airports
Route: PADRZ2 CHKNN SEBBY YELAH MISEN KEPEC6
File this flight plan on PilotEdge
Remarks:
Altitude:
(Current/Filed)
35,000ft
Speed:
(Current/Filed)
450kts
Departed: 17-Jan-21 09:57 AM
Arrived: 17-Jan-21 10:50 AM
Distance/Time
Traveled:
225nm/0:53
Distance/Time
To Go:
Arrived

Flight Plot

Page will automatically refresh every two minutes.

Flight plan parsing failed; only flown route is shown


Map Options




Map Legend


Flown Route
Filed Route
Departure Airport
Arrival Airport
Navaid (VOR, NDB)
Fix

Horizontal Profiles

Position Reports

Time Latitude Longitude Heading Altitude Ground
Speed
17-Jan-21 09:37 32.733037 -117.200656 275 29ft 0kts
17-Jan-21 09:38 32.733037 -117.200656 275 29ft 0kts
17-Jan-21 09:39 32.733037 -117.200656 275 29ft 0kts
17-Jan-21 09:40 32.733037 -117.200656 275 29ft 0kts
17-Jan-21 09:41 32.733002 -117.200380 287 29ft 2kts
17-Jan-21 09:42 32.732710 -117.200039 11 29ft 0kts
17-Jan-21 09:43 32.732711 -117.200039 11 29ft 0kts
17-Jan-21 09:44 32.732724 -117.200035 17 29ft 0kts
17-Jan-21 09:45 32.732737 -117.200030 24 29ft 0kts
17-Jan-21 09:46 32.732744 -117.200026 27 29ft 0kts
17-Jan-21 09:47 32.732762 -117.200015 29 29ft 0kts
17-Jan-21 09:48 32.732767 -117.200011 32 29ft 0kts
17-Jan-21 09:49 32.732770 -117.200009 34 29ft 0kts
17-Jan-21 09:50 32.732772 -117.200007 35 29ft 0kts
17-Jan-21 09:51 32.734204 -117.199647 12 29ft 2kts
17-Jan-21 09:52 32.733561 -117.193985 104 29ft 32kts
17-Jan-21 09:53 32.730706 -117.182358 107 29ft 40kts
17-Jan-21 09:54 32.729619 -117.177223 84 29ft 0kts
17-Jan-21 09:55 32.730609 -117.177514 285 29ft 27kts
17-Jan-21 09:56 32.740602 -117.216781 293 1147ft 153kts
17-Jan-21 09:57 32.769167 -117.264181 304 3090ft 206kts
17-Jan-21 09:58 32.806278 -117.329178 308 5446ft 266kts
17-Jan-21 09:59 32.854100 -117.402584 308 8723ft 288kts
17-Jan-21 10:00 32.904654 -117.481200 308 11405ft 321kts
17-Jan-21 10:01 32.964187 -117.573886 308 12691ft 374kts
17-Jan-21 10:02 33.028342 -117.674088 308 15236ft 385kts
17-Jan-21 10:03 33.101429 -117.768976 321 17552ft 396kts
17-Jan-21 10:04 33.186939 -117.854309 320 19756ft 407kts
17-Jan-21 10:06 33.275801 -117.941656 321 21699ft 420kts
17-Jan-21 10:07 33.367598 -118.031431 321 23444ft 431kts
17-Jan-21 10:08 33.461770 -118.123765 321 24981ft 442kts
17-Jan-21 10:09 33.554125 -118.214582 321 26310ft 451kts
17-Jan-21 10:10 33.665228 -118.283566 344 27534ft 458kts
17-Jan-21 10:11 33.787320 -118.265001 30 28921ft 462kts
17-Jan-21 10:12 33.870532 -118.148306 54 30451ft 463kts
17-Jan-21 10:13 33.944699 -118.022820 52 31903ft 459kts
17-Jan-21 10:14 34.018492 -117.897516 53 33279ft 455kts
17-Jan-21 10:15 34.091945 -117.773622 50 34515ft 452kts
17-Jan-21 10:16 34.171680 -117.657077 48 35162ft 450kts
17-Jan-21 10:17 34.251330 -117.540205 48 35183ft 449kts
17-Jan-21 10:18 34.330671 -117.423657 48 35193ft 448kts
17-Jan-21 10:19 34.409536 -117.307356 48 35232ft 448kts
17-Jan-21 10:19 34.476057 -117.209052 49 35284ft 457kts
17-Jan-21 10:21 34.570266 -117.069121 49 35322ft 457kts
17-Jan-21 10:22 34.650567 -116.949580 48 35338ft 457kts
17-Jan-21 10:22 34.717016 -116.850251 49 34668ft 453kts
17-Jan-21 10:23 34.796836 -116.730633 49 33691ft 456kts
17-Jan-21 10:24 34.881884 -116.616396 37 31294ft 458kts
17-Jan-21 10:26 35.000402 -116.503307 37 27670ft 466kts
17-Jan-21 10:26 35.085082 -116.420268 36 24853ft 467kts
17-Jan-21 10:27 35.176781 -116.310634 44 22891ft 452kts
17-Jan-21 10:28 35.260610 -116.205308 43 21360ft 421kts
17-Jan-21 10:29 35.341444 -116.103489 43 19815ft 410kts
17-Jan-21 10:30 35.419906 -116.004448 43 18300ft 400kts
17-Jan-21 10:31 35.496247 -115.907799 43 16506ft 390kts
17-Jan-21 10:32 35.568668 -115.815792 43 15385ft 345kts
17-Jan-21 10:33 35.630382 -115.737255 43 14068ft 309kts
17-Jan-21 10:34 35.688847 -115.662741 43 12986ft 300kts
17-Jan-21 10:35 35.747139 -115.588810 38 12995ft 299kts
17-Jan-21 10:36 35.825995 -115.570973 359 13030ft 293kts
17-Jan-21 10:37 35.907572 -115.567128 1 13023ft 293kts
17-Jan-21 10:38 35.981578 -115.536316 57 12849ft 301kts
17-Jan-21 10:39 36.010169 -115.439842 66 11704ft 288kts
17-Jan-21 10:40 36.030294 -115.348868 93 10673ft 278kts
17-Jan-21 10:41 36.021880 -115.254407 92 9444ft 272kts
17-Jan-21 10:42 36.015642 -115.165426 93 8836ft 247kts
17-Jan-21 10:43 36.024357 -115.082774 47 7914ft 273kts
17-Jan-21 10:44 36.092634 -115.040732 21 6533ft 272kts
17-Jan-21 10:45 36.162600 -115.032163 322 5472ft 245kts
17-Jan-21 10:46 36.183437 -115.097319 252 4946ft 195kts
17-Jan-21 10:47 36.147740 -115.129828 199 3726ft 148kts
17-Jan-21 10:48 36.110975 -115.149782 204 2492ft 142kts
17-Jan-21 10:49 36.084373 -115.165359 234 2129ft 27kts
17-Jan-21 10:50 36.083492 -115.166652 228 2129ft 9kts
17-Jan-21 10:51 36.084154 -115.168412 334 2129ft 19kts
17-Jan-21 10:52 36.086000 -115.169426 330 2129ft 0kts

Navigation Log

Ident Type
Flight plan parsing failed, navigation log unavailable